Search for airport 
image banner adimage banner adimage banner ad
image banner ad

9CL7 - Old Aerodrome

Located in Marysville, United States

ICAO - 9CL7, IATA -

Data provided by Airmate  

General information

Coordinates: N39°19'30" W121°21'34"
Elevation is 700 feet MSL.
Magnetic variation is 16° East
View others Airports in California

Operational data

Special qualification required
Current time UTC:
Current local time:
Weather at : KBAB - Beale Afb ( 22 km )
METAR: KBAB 221256Z 13011KT 10SM CLR 16/12 A2985 RMK AO2A SLP110 T01590117 $
TAF: TAF KBAB 220300Z 2203/2309 15006KT 9999 SKC QNH2978INS BECMG 2216/2217 19010KT 9999 SKC QNH2976INS BECMG 2303/2304 18007KT 9999 SKC QNH2978INS TX32/2223Z TN16/2213Z
View NOTAMs / SUP AIP / TFR affecting this airport [VIEW]
Communications frequencies: [VIEW]

Runways:

RWY identifierQFULength (ft)Width (ft)SurfaceLDA (ft)
162300100GRASS
342300100GRASS

Airport contact information

Address: Marysville United States

Satellite view of 9CL7